sensor_id;sensor_type;location;lat;lon;timestamp;P1;durP1;ratioP1;P2;durP2;ratioP2
3081;SDS011;1551;51.046;7.010;2022-11-04T00:00:02;2.17;;;1.20;;
3081;SDS011;1551;51.046;7.010;2022-11-04T00:02:53;1.88;;;1.00;;
3081;SDS011;1551;51.046;7.010;2022-11-04T00:05:42;2.70;;;1.20;;
3081;SDS011;1551;51.046;7.010;2022-11-04T00:08:31;1.90;;;0.80;;
3081;SDS011;1551;51.046;7.010;2022-11-04T00:11:21;1.80;;;1.02;;
3081;SDS011;1551;51.046;7.010;2022-11-04T00:14:29;2.40;;;1.30;;
3081;SDS011;1551;51.046;7.010;2022-11-04T00:17:19;2.00;;;1.02;;
3081;SDS011;1551;51.046;7.010;2022-11-04T00:20:09;1.70;;;1.10;;
3081;SDS011;1551;51.046;7.010;2022-11-04T00:23:17;2.00;;;1.00;;
3081;SDS011;1551;51.046;7.010;2022-11-04T00:26:25;4.30;;;1.20;;
3081;SDS011;1551;51.046;7.010;2022-11-04T00:29:34;2.10;;;1.25;;
3081;SDS011;1551;51.046;7.010;2022-11-04T00:32:23;2.40;;;1.48;;
3081;SDS011;1551;51.046;7.010;2022-11-04T00:35:30;2.20;;;1.30;;
3081;SDS011;1551;51.046;7.010;2022-11-04T00:38:19;1.90;;;1.40;;
3081;SDS011;1551;51.046;7.010;2022-11-04T00:41:09;2.75;;;1.50;;
3081;SDS011;1551;51.046;7.010;2022-11-04T00:44:17;2.28;;;1.40;;
3081;SDS011;1551;51.046;7.010;2022-11-04T00:47:06;1.60;;;1.10;;
3081;SDS011;1551;51.046;7.010;2022-11-04T00:49:55;1.77;;;1.00;;
3081;SDS011;1551;51.046;7.010;2022-11-04T00:52:44;2.78;;;1.52;;
3081;SDS011;1551;51.046;7.010;2022-11-04T00:55:33;3.30;;;1.00;;
3081;SDS011;1551;51.046;7.010;2022-11-04T00:58:22;1.80;;;1.10;;
3081;SDS011;1551;51.046;7.010;2022-11-04T01:01:12;3.13;;;1.40;;
3081;SDS011;1551;51.046;7.010;2022-11-04T01:04:05;2.28;;;1.55;;
3081;SDS011;1551;51.046;7.010;2022-11-04T01:06:54;2.42;;;1.60;;
3081;SDS011;1551;51.046;7.010;2022-11-04T01:09:43;2.25;;;1.33;;
3081;SDS011;1551;51.046;7.010;2022-11-04T01:12:32;2.30;;;1.60;;
3081;SDS011;1551;51.046;7.010;2022-11-04T01:15:22;2.70;;;1.67;;
3081;SDS011;1551;51.046;7.010;2022-11-04T01:18:10;4.40;;;1.90;;
3081;SDS011;1551;51.046;7.010;2022-11-04T01:21:00;2.30;;;1.85;;
3081;SDS011;1551;51.046;7.010;2022-11-04T01:23:54;2.50;;;1.70;;
3081;SDS011;1551;51.046;7.010;2022-11-04T01:26:43;2.58;;;1.63;;
3081;SDS011;1551;51.046;7.010;2022-11-04T01:29:33;2.33;;;1.70;;
3081;SDS011;1551;51.046;7.010;2022-11-04T01:32:21;2.25;;;1.58;;
3081;SDS011;1551;51.046;7.010;2022-11-04T01:35:10;2.47;;;1.70;;
3081;SDS011;1551;51.046;7.010;2022-11-04T01:37:59;2.90;;;1.75;;
3081;SDS011;1551;51.046;7.010;2022-11-04T01:40:48;5.00;;;2.50;;
3081;SDS011;1551;51.046;7.010;2022-11-04T01:43:45;2.92;;;1.88;;
3081;SDS011;1551;51.046;7.010;2022-11-04T01:46:46;2.53;;;1.47;;
3081;SDS011;1551;51.046;7.010;2022-11-04T01:49:39;3.10;;;1.50;;
3081;SDS011;1551;51.046;7.010;2022-11-04T01:55:54;4.05;;;1.50;;
3081;SDS011;1551;51.046;7.010;2022-11-04T01:58:47;5.07;;;1.63;;
3081;SDS011;1551;51.046;7.010;2022-11-04T02:01:39;4.80;;;1.67;;
3081;SDS011;1551;51.046;7.010;2022-11-04T02:04:28;3.45;;;1.27;;
3081;SDS011;1551;51.046;7.010;2022-11-04T02:07:18;4.65;;;2.15;;
3081;SDS011;1551;51.046;7.010;2022-11-04T02:10:07;2.75;;;1.50;;
3081;SDS011;1551;51.046;7.010;2022-11-04T02:12:57;2.60;;;1.60;;
3081;SDS011;1551;51.046;7.010;2022-11-04T02:15:54;4.30;;;1.40;;
3081;SDS011;1551;51.046;7.010;2022-11-04T02:25:30;5.13;;;2.00;;
3081;SDS011;1551;51.046;7.010;2022-11-04T02:32:04;2.92;;;1.60;;
3081;SDS011;1551;51.046;7.010;2022-11-04T02:35:07;5.10;;;1.65;;
3081;SDS011;1551;51.046;7.010;2022-11-04T02:41:25;2.83;;;1.75;;
3081;SDS011;1551;51.046;7.010;2022-11-04T02:44:30;5.33;;;2.47;;
3081;SDS011;1551;51.046;7.010;2022-11-04T02:47:24;5.53;;;1.77;;
3081;SDS011;1551;51.046;7.010;2022-11-04T02:50:22;2.72;;;1.48;;
3081;SDS011;1551;51.046;7.010;2022-11-04T02:53:20;4.60;;;1.67;;
3081;SDS011;1551;51.046;7.010;2022-11-04T02:56:15;3.93;;;1.50;;
3081;SDS011;1551;51.046;7.010;2022-11-04T02:59:09;3.80;;;1.70;;
3081;SDS011;1551;51.046;7.010;2022-11-04T03:02:08;4.60;;;1.60;;
3081;SDS011;1551;51.046;7.010;2022-11-04T03:05:02;2.97;;;1.73;;
3081;SDS011;1551;51.046;7.010;2022-11-04T03:07:54;2.70;;;1.63;;
3081;SDS011;1551;51.046;7.010;2022-11-04T03:10:50;6.10;;;1.58;;
3081;SDS011;1551;51.046;7.010;2022-11-04T03:13:44;4.85;;;1.80;;
3081;SDS011;1551;51.046;7.010;2022-11-04T03:16:39;6.18;;;1.80;;
3081;SDS011;1551;51.046;7.010;2022-11-04T03:19:56;4.40;;;1.70;;
3081;SDS011;1551;51.046;7.010;2022-11-04T03:22:47;2.90;;;1.10;;
3081;SDS011;1551;51.046;7.010;2022-11-04T03:25:38;3.10;;;1.30;;
3081;SDS011;1551;51.046;7.010;2022-11-04T03:31:43;3.47;;;1.00;;
3081;SDS011;1551;51.046;7.010;2022-11-04T03:34:38;5.22;;;1.30;;
3081;SDS011;1551;51.046;7.010;2022-11-04T03:37:27;4.68;;;1.98;;
3081;SDS011;1551;51.046;7.010;2022-11-04T03:40:16;4.88;;;1.40;;
3081;SDS011;1551;51.046;7.010;2022-11-04T03:43:10;3.30;;;1.20;;
3081;SDS011;1551;51.046;7.010;2022-11-04T03:46:02;3.43;;;1.13;;
3081;SDS011;1551;51.046;7.010;2022-11-04T03:48:52;2.50;;;1.20;;
3081;SDS011;1551;51.046;7.010;2022-11-04T03:51:41;4.28;;;1.38;;
3081;SDS011;1551;51.046;7.010;2022-11-04T03:54:30;3.10;;;1.30;;
3081;SDS011;1551;51.046;7.010;2022-11-04T04:00:57;3.25;;;1.45;;
3081;SDS011;1551;51.046;7.010;2022-11-04T04:04:54;2.67;;;1.10;;
3081;SDS011;1551;51.046;7.010;2022-11-04T04:07:27;2.70;;;1.35;;
3081;SDS011;1551;51.046;7.010;2022-11-04T04:10:25;3.40;;;1.67;;
3081;SDS011;1551;51.046;7.010;2022-11-04T04:16:41;2.42;;;1.35;;
3081;SDS011;1551;51.046;7.010;2022-11-04T04:19:34;2.70;;;1.55;;
3081;SDS011;1551;51.046;7.010;2022-11-04T04:22:28;3.40;;;1.85;;
3081;SDS011;1551;51.046;7.010;2022-11-04T04:25:22;3.90;;;1.30;;
3081;SDS011;1551;51.046;7.010;2022-11-04T04:28:34;3.53;;;1.20;;
3081;SDS011;1551;51.046;7.010;2022-11-04T04:31:24;4.25;;;1.35;;
3081;SDS011;1551;51.046;7.010;2022-11-04T04:34:35;2.83;;;1.30;;
3081;SDS011;1551;51.046;7.010;2022-11-04T04:37:25;6.20;;;2.05;;
3081;SDS011;1551;51.046;7.010;2022-11-04T04:40:15;3.92;;;1.90;;
3081;SDS011;1551;51.046;7.010;2022-11-04T04:43:27;3.60;;;1.50;;
3081;SDS011;1551;51.046;7.010;2022-11-04T04:46:35;3.30;;;2.03;;
3081;SDS011;1551;51.046;7.010;2022-11-04T04:49:26;4.20;;;1.43;;
3081;SDS011;1551;51.046;7.010;2022-11-04T04:52:23;3.38;;;1.50;;
3081;SDS011;1551;51.046;7.010;2022-11-04T04:55:15;3.80;;;1.60;;
3081;SDS011;1551;51.046;7.010;2022-11-04T04:58:04;3.03;;;1.20;;
3081;SDS011;1551;51.046;7.010;2022-11-04T05:00:53;3.90;;;1.20;;
3081;SDS011;1551;51.046;7.010;2022-11-04T05:03:42;3.97;;;1.70;;
3081;SDS011;1551;51.046;7.010;2022-11-04T05:06:31;3.28;;;1.42;;
3081;SDS011;1551;51.046;7.010;2022-11-04T05:09:20;4.00;;;1.52;;
3081;SDS011;1551;51.046;7.010;2022-11-04T05:12:09;4.40;;;1.60;;
3081;SDS011;1551;51.046;7.010;2022-11-04T05:14:58;3.00;;;1.60;;
3081;SDS011;1551;51.046;7.010;2022-11-04T05:17:47;3.50;;;1.40;;
3081;SDS011;1551;51.046;7.010;2022-11-04T05:20:41;4.20;;;1.92;;
3081;SDS011;1551;51.046;7.010;2022-11-04T05:23:30;3.47;;;1.50;;
3081;SDS011;1551;51.046;7.010;2022-11-04T05:26:19;3.85;;;1.42;;
3081;SDS011;1551;51.046;7.010;2022-11-04T05:29:09;5.03;;;1.42;;
3081;SDS011;1551;51.046;7.010;2022-11-04T05:31:58;3.60;;;1.27;;
3081;SDS011;1551;51.046;7.010;2022-11-04T05:34:47;5.70;;;1.40;;
3081;SDS011;1551;51.046;7.010;2022-11-04T05:37:36;4.38;;;1.38;;
3081;SDS011;1551;51.046;7.010;2022-11-04T05:40:25;3.75;;;1.50;;
3081;SDS011;1551;51.046;7.010;2022-11-04T05:43:14;4.10;;;1.70;;
3081;SDS011;1551;51.046;7.010;2022-11-04T05:46:03;4.97;;;1.70;;
3081;SDS011;1551;51.046;7.010;2022-11-04T05:48:52;4.22;;;3.00;;
3081;SDS011;1551;51.046;7.010;2022-11-04T05:51:42;6.70;;;2.95;;
3081;SDS011;1551;51.046;7.010;2022-11-04T05:54:32;4.03;;;1.70;;
3081;SDS011;1551;51.046;7.010;2022-11-04T05:57:21;4.60;;;1.50;;
3081;SDS011;1551;51.046;7.010;2022-11-04T06:00:11;4.95;;;1.90;;
3081;SDS011;1551;51.046;7.010;2022-11-04T06:03:01;3.47;;;1.47;;
3081;SDS011;1551;51.046;7.010;2022-11-04T06:05:50;3.50;;;1.23;;
3081;SDS011;1551;51.046;7.010;2022-11-04T06:08:39;6.18;;;1.50;;
3081;SDS011;1551;51.046;7.010;2022-11-04T06:11:29;2.67;;;1.50;;
3081;SDS011;1551;51.046;7.010;2022-11-04T06:14:20;3.83;;;1.38;;
3081;SDS011;1551;51.046;7.010;2022-11-04T06:17:16;6.00;;;1.88;;
3081;SDS011;1551;51.046;7.010;2022-11-04T06:20:06;2.92;;;1.90;;
3081;SDS011;1551;51.046;7.010;2022-11-04T06:22:56;4.82;;;1.50;;
3081;SDS011;1551;51.046;7.010;2022-11-04T06:25:45;3.90;;;1.77;;
3081;SDS011;1551;51.046;7.010;2022-11-04T06:28:34;6.22;;;2.08;;
3081;SDS011;1551;51.046;7.010;2022-11-04T06:31:23;3.85;;;2.10;;
3081;SDS011;1551;51.046;7.010;2022-11-04T06:34:12;5.22;;;1.83;;
3081;SDS011;1551;51.046;7.010;2022-11-04T06:37:01;3.55;;;1.50;;
3081;SDS011;1551;51.046;7.010;2022-11-04T06:39:50;2.67;;;1.40;;
3081;SDS011;1551;51.046;7.010;2022-11-04T06:42:39;3.65;;;1.73;;
3081;SDS011;1551;51.046;7.010;2022-11-04T06:45:30;4.68;;;1.85;;
3081;SDS011;1551;51.046;7.010;2022-11-04T06:48:19;4.28;;;2.03;;
3081;SDS011;1551;51.046;7.010;2022-11-04T06:51:08;4.40;;;2.20;;
3081;SDS011;1551;51.046;7.010;2022-11-04T06:53:57;3.78;;;2.70;;
3081;SDS011;1551;51.046;7.010;2022-11-04T06:56:46;6.20;;;3.00;;
3081;SDS011;1551;51.046;7.010;2022-11-04T06:59:36;3.10;;;1.90;;
3081;SDS011;1551;51.046;7.010;2022-11-04T07:02:25;5.70;;;3.47;;
3081;SDS011;1551;51.046;7.010;2022-11-04T07:05:14;6.80;;;4.25;;
3081;SDS011;1551;51.046;7.010;2022-11-04T07:08:03;6.00;;;3.60;;
3081;SDS011;1551;51.046;7.010;2022-11-04T07:10:53;5.68;;;2.10;;
3081;SDS011;1551;51.046;7.010;2022-11-04T07:13:42;4.40;;;2.08;;
3081;SDS011;1551;51.046;7.010;2022-11-04T07:16:31;4.00;;;2.25;;
3081;SDS011;1551;51.046;7.010;2022-11-04T07:19:20;4.30;;;1.88;;
3081;SDS011;1551;51.046;7.010;2022-11-04T07:22:09;4.00;;;1.90;;
3081;SDS011;1551;51.046;7.010;2022-11-04T07:24:58;4.40;;;1.48;;
3081;SDS011;1551;51.046;7.010;2022-11-04T07:27:47;3.05;;;1.35;;
3081;SDS011;1551;51.046;7.010;2022-11-04T07:30:36;3.37;;;1.40;;
3081;SDS011;1551;51.046;7.010;2022-11-04T07:33:25;2.88;;;1.63;;
3081;SDS011;1551;51.046;7.010;2022-11-04T07:36:15;3.03;;;1.35;;
3081;SDS011;1551;51.046;7.010;2022-11-04T07:39:05;7.40;;;2.80;;
3081;SDS011;1551;51.046;7.010;2022-11-04T07:41:54;7.43;;;4.20;;
3081;SDS011;1551;51.046;7.010;2022-11-04T07:44:43;7.40;;;3.33;;
3081;SDS011;1551;51.046;7.010;2022-11-04T07:47:32;9.02;;;3.30;;
3081;SDS011;1551;51.046;7.010;2022-11-04T07:50:22;3.85;;;1.65;;
3081;SDS011;1551;51.046;7.010;2022-11-04T07:53:11;6.43;;;2.33;;
3081;SDS011;1551;51.046;7.010;2022-11-04T07:56:04;5.15;;;2.72;;
3081;SDS011;1551;51.046;7.010;2022-11-04T07:58:54;6.57;;;5.00;;
3081;SDS011;1551;51.046;7.010;2022-11-04T08:01:43;6.20;;;3.80;;
3081;SDS011;1551;51.046;7.010;2022-11-04T08:04:32;9.20;;;3.67;;
3081;SDS011;1551;51.046;7.010;2022-11-04T08:07:21;7.50;;;3.28;;
3081;SDS011;1551;51.046;7.010;2022-11-04T08:10:10;5.00;;;2.22;;
3081;SDS011;1551;51.046;7.010;2022-11-04T08:12:58;5.85;;;2.10;;
3081;SDS011;1551;51.046;7.010;2022-11-04T08:15:47;4.97;;;2.45;;
3081;SDS011;1551;51.046;7.010;2022-11-04T08:18:36;6.00;;;2.87;;
3081;SDS011;1551;51.046;7.010;2022-11-04T08:21:26;7.03;;;2.95;;
3081;SDS011;1551;51.046;7.010;2022-11-04T08:24:15;4.57;;;2.00;;
3081;SDS011;1551;51.046;7.010;2022-11-04T08:27:04;4.93;;;2.30;;
3081;SDS011;1551;51.046;7.010;2022-11-04T08:29:57;4.53;;;2.03;;
3081;SDS011;1551;51.046;7.010;2022-11-04T08:32:46;5.00;;;2.35;;
3081;SDS011;1551;51.046;7.010;2022-11-04T08:35:35;4.47;;;2.10;;
3081;SDS011;1551;51.046;7.010;2022-11-04T08:38:24;4.70;;;2.20;;
3081;SDS011;1551;51.046;7.010;2022-11-04T08:41:14;4.00;;;2.10;;
3081;SDS011;1551;51.046;7.010;2022-11-04T08:44:05;5.07;;;2.10;;
3081;SDS011;1551;51.046;7.010;2022-11-04T08:46:55;4.70;;;2.10;;
3081;SDS011;1551;51.046;7.010;2022-11-04T08:49:43;7.85;;;2.28;;
3081;SDS011;1551;51.046;7.010;2022-11-04T08:52:32;5.25;;;1.90;;
3081;SDS011;1551;51.046;7.010;2022-11-04T08:55:21;3.47;;;1.65;;
3081;SDS011;1551;51.046;7.010;2022-11-04T08:58:10;7.05;;;2.10;;
3081;SDS011;1551;51.046;7.010;2022-11-04T09:01:02;4.05;;;2.38;;
3081;SDS011;1551;51.046;7.010;2022-11-04T09:03:52;4.38;;;3.20;;
3081;SDS011;1551;51.046;7.010;2022-11-04T09:06:42;6.05;;;2.90;;
3081;SDS011;1551;51.046;7.010;2022-11-04T09:09:33;5.10;;;2.35;;
3081;SDS011;1551;51.046;7.010;2022-11-04T09:12:23;5.55;;;2.25;;
3081;SDS011;1551;51.046;7.010;2022-11-04T09:15:12;4.82;;;1.92;;
3081;SDS011;1551;51.046;7.010;2022-11-04T09:18:02;4.57;;;1.90;;
3081;SDS011;1551;51.046;7.010;2022-11-04T09:20:51;5.00;;;2.20;;
3081;SDS011;1551;51.046;7.010;2022-11-04T09:23:40;5.90;;;1.70;;
3081;SDS011;1551;51.046;7.010;2022-11-04T09:26:30;4.60;;;2.90;;
3081;SDS011;1551;51.046;7.010;2022-11-04T09:29:19;6.53;;;3.00;;
3081;SDS011;1551;51.046;7.010;2022-11-04T09:32:08;4.75;;;2.70;;
3081;SDS011;1551;51.046;7.010;2022-11-04T09:34:57;4.60;;;2.10;;
3081;SDS011;1551;51.046;7.010;2022-11-04T09:37:46;5.20;;;1.92;;
3081;SDS011;1551;51.046;7.010;2022-11-04T09:40:35;4.03;;;1.40;;
3081;SDS011;1551;51.046;7.010;2022-11-04T09:43:36;3.47;;;2.23;;
3081;SDS011;1551;51.046;7.010;2022-11-04T09:46:32;6.00;;;2.20;;
3081;SDS011;1551;51.046;7.010;2022-11-04T09:49:25;6.60;;;2.10;;
3081;SDS011;1551;51.046;7.010;2022-11-04T09:52:22;4.47;;;2.17;;
3081;SDS011;1551;51.046;7.010;2022-11-04T09:55:16;2.92;;;1.70;;
3081;SDS011;1551;51.046;7.010;2022-11-04T09:58:12;4.80;;;2.10;;
3081;SDS011;1551;51.046;7.010;2022-11-04T10:01:10;5.30;;;1.77;;
3081;SDS011;1551;51.046;7.010;2022-11-04T10:04:32;3.60;;;1.60;;
3081;SDS011;1551;51.046;7.010;2022-11-04T10:14:09;6.03;;;2.25;;
3081;SDS011;1551;51.046;7.010;2022-11-04T10:27:04;3.78;;;1.85;;
3081;SDS011;1551;51.046;7.010;2022-11-04T10:30:02;3.50;;;1.45;;
3081;SDS011;1551;51.046;7.010;2022-11-04T10:32:57;3.67;;;1.60;;
3081;SDS011;1551;51.046;7.010;2022-11-04T10:35:52;3.10;;;1.83;;
3081;SDS011;1551;51.046;7.010;2022-11-04T10:38:51;6.60;;;2.20;;
3081;SDS011;1551;51.046;7.010;2022-11-04T10:41:45;3.38;;;1.65;;
3081;SDS011;1551;51.046;7.010;2022-11-04T10:44:35;3.43;;;1.90;;
3081;SDS011;1551;51.046;7.010;2022-11-04T10:50:51;2.85;;;1.55;;
3081;SDS011;1551;51.046;7.010;2022-11-04T10:53:44;5.68;;;1.85;;
3081;SDS011;1551;51.046;7.010;2022-11-04T10:56:53;5.60;;;2.55;;
3081;SDS011;1551;51.046;7.010;2022-11-04T11:02:48;4.82;;;1.73;;
3081;SDS011;1551;51.046;7.010;2022-11-04T11:05:37;3.90;;;1.63;;
3081;SDS011;1551;51.046;7.010;2022-11-04T11:08:30;3.35;;;1.60;;
3081;SDS011;1551;51.046;7.010;2022-11-04T11:11:34;4.23;;;2.43;;
3081;SDS011;1551;51.046;7.010;2022-11-04T11:20:23;5.13;;;2.60;;
3081;SDS011;1551;51.046;7.010;2022-11-04T11:23:35;5.28;;;2.47;;
3081;SDS011;1551;51.046;7.010;2022-11-04T11:26:30;7.13;;;3.08;;
3081;SDS011;1551;51.046;7.010;2022-11-04T11:29:27;4.30;;;2.03;;
3081;SDS011;1551;51.046;7.010;2022-11-04T11:32:26;3.72;;;1.55;;
3081;SDS011;1551;51.046;7.010;2022-11-04T11:35:21;3.85;;;1.50;;
3081;SDS011;1551;51.046;7.010;2022-11-04T11:38:16;3.63;;;1.85;;
3081;SDS011;1551;51.046;7.010;2022-11-04T11:41:13;5.25;;;2.17;;
3081;SDS011;1551;51.046;7.010;2022-11-04T11:44:16;5.10;;;1.92;;
3081;SDS011;1551;51.046;7.010;2022-11-04T11:47:20;5.35;;;2.15;;
3081;SDS011;1551;51.046;7.010;2022-11-04T11:50:19;6.07;;;1.90;;
3081;SDS011;1551;51.046;7.010;2022-11-04T11:53:16;5.30;;;2.10;;
3081;SDS011;1551;51.046;7.010;2022-11-04T11:56:24;4.18;;;1.80;;
3081;SDS011;1551;51.046;7.010;2022-11-04T11:59:21;3.58;;;1.50;;
3081;SDS011;1551;51.046;7.010;2022-11-04T12:02:19;3.13;;;1.27;;
3081;SDS011;1551;51.046;7.010;2022-11-04T12:05:16;3.80;;;1.60;;
3081;SDS011;1551;51.046;7.010;2022-11-04T12:11:18;3.58;;;1.55;;
3081;SDS011;1551;51.046;7.010;2022-11-04T12:14:15;2.67;;;1.50;;
3081;SDS011;1551;51.046;7.010;2022-11-04T12:17:47;4.07;;;1.75;;
3081;SDS011;1551;51.046;7.010;2022-11-04T12:23:38;3.67;;;2.10;;
3081;SDS011;1551;51.046;7.010;2022-11-04T12:26:42;7.30;;;4.73;;
3081;SDS011;1551;51.046;7.010;2022-11-04T12:29:54;5.20;;;2.72;;
3081;SDS011;1551;51.046;7.010;2022-11-04T12:33:10;5.30;;;2.20;;
3081;SDS011;1551;51.046;7.010;2022-11-04T12:36:31;3.60;;;2.38;;
3081;SDS011;1551;51.046;7.010;2022-11-04T12:39:29;7.05;;;2.10;;
3081;SDS011;1551;51.046;7.010;2022-11-04T12:55:21;2.97;;;1.70;;
3081;SDS011;1551;51.046;7.010;2022-11-04T13:01:34;6.13;;;2.22;;
3081;SDS011;1551;51.046;7.010;2022-11-04T13:04:32;3.78;;;1.85;;
3081;SDS011;1551;51.046;7.010;2022-11-04T13:07:29;3.65;;;2.25;;
3081;SDS011;1551;51.046;7.010;2022-11-04T13:10:25;5.05;;;2.55;;
3081;SDS011;1551;51.046;7.010;2022-11-04T13:13:35;5.10;;;1.77;;
3081;SDS011;1551;51.046;7.010;2022-11-04T13:16:26;6.82;;;2.08;;
3081;SDS011;1551;51.046;7.010;2022-11-04T13:19:21;5.05;;;1.90;;
3081;SDS011;1551;51.046;7.010;2022-11-04T13:22:17;5.80;;;1.90;;
3081;SDS011;1551;51.046;7.010;2022-11-04T13:25:15;5.57;;;2.30;;
3081;SDS011;1551;51.046;7.010;2022-11-04T13:28:12;3.67;;;1.83;;
3081;SDS011;1551;51.046;7.010;2022-11-04T13:31:14;3.83;;;2.03;;
3081;SDS011;1551;51.046;7.010;2022-11-04T13:37:39;4.00;;;2.40;;
3081;SDS011;1551;51.046;7.010;2022-11-04T13:41:20;4.10;;;1.90;;
3081;SDS011;1551;51.046;7.010;2022-11-04T13:44:00;6.05;;;2.70;;
3081;SDS011;1551;51.046;7.010;2022-11-04T13:46:53;6.00;;;2.97;;
3081;SDS011;1551;51.046;7.010;2022-11-04T13:49:49;4.78;;;2.40;;
3081;SDS011;1551;51.046;7.010;2022-11-04T13:52:46;5.85;;;2.63;;
3081;SDS011;1551;51.046;7.010;2022-11-04T13:55:46;6.20;;;2.90;;
3081;SDS011;1551;51.046;7.010;2022-11-04T13:58:37;8.52;;;2.60;;
3081;SDS011;1551;51.046;7.010;2022-11-04T14:01:29;5.80;;;2.90;;
3081;SDS011;1551;51.046;7.010;2022-11-04T14:04:25;7.25;;;4.28;;
3081;SDS011;1551;51.046;7.010;2022-11-04T14:07:16;4.65;;;2.90;;
3081;SDS011;1551;51.046;7.010;2022-11-04T14:10:30;5.28;;;2.83;;
3081;SDS011;1551;51.046;7.010;2022-11-04T14:19:44;7.88;;;4.72;;
3081;SDS011;1551;51.046;7.010;2022-11-04T14:25:32;4.72;;;2.38;;
3081;SDS011;1551;51.046;7.010;2022-11-04T14:28:25;4.65;;;2.50;;
3081;SDS011;1551;51.046;7.010;2022-11-04T14:34:32;4.55;;;1.95;;
3081;SDS011;1551;51.046;7.010;2022-11-04T14:37:29;5.85;;;2.40;;
3081;SDS011;1551;51.046;7.010;2022-11-04T14:40:44;5.43;;;2.63;;
3081;SDS011;1551;51.046;7.010;2022-11-04T14:43:35;7.85;;;2.58;;
3081;SDS011;1551;51.046;7.010;2022-11-04T14:46:30;4.95;;;2.05;;
3081;SDS011;1551;51.046;7.010;2022-11-04T14:52:44;5.15;;;2.30;;
3081;SDS011;1551;51.046;7.010;2022-11-04T14:55:37;4.68;;;2.10;;
3081;SDS011;1551;51.046;7.010;2022-11-04T14:58:26;3.30;;;2.20;;
3081;SDS011;1551;51.046;7.010;2022-11-04T15:01:18;6.70;;;2.80;;
3081;SDS011;1551;51.046;7.010;2022-11-04T15:04:17;5.50;;;2.45;;
3081;SDS011;1551;51.046;7.010;2022-11-04T15:07:25;4.30;;;2.70;;
3081;SDS011;1551;51.046;7.010;2022-11-04T15:13:09;4.55;;;2.35;;
3081;SDS011;1551;51.046;7.010;2022-11-04T15:15:58;6.77;;;2.67;;
3081;SDS011;1551;51.046;7.010;2022-11-04T15:18:54;5.00;;;2.30;;
3081;SDS011;1551;51.046;7.010;2022-11-04T15:21:45;6.72;;;2.72;;
3081;SDS011;1551;51.046;7.010;2022-11-04T15:24:37;5.35;;;2.67;;
3081;SDS011;1551;51.046;7.010;2022-11-04T15:27:31;4.25;;;2.50;;
3081;SDS011;1551;51.046;7.010;2022-11-04T15:30:26;4.72;;;2.55;;
3081;SDS011;1551;51.046;7.010;2022-11-04T15:33:18;6.80;;;2.80;;
3081;SDS011;1551;51.046;7.010;2022-11-04T15:36:09;5.90;;;2.88;;
3081;SDS011;1551;51.046;7.010;2022-11-04T15:42:15;23.40;;;14.82;;
3081;SDS011;1551;51.046;7.010;2022-11-04T15:45:28;22.60;;;15.57;;
3081;SDS011;1551;51.046;7.010;2022-11-04T15:48:30;9.55;;;4.28;;
3081;SDS011;1551;51.046;7.010;2022-11-04T15:51:28;6.82;;;3.90;;
3081;SDS011;1551;51.046;7.010;2022-11-04T15:54:23;6.07;;;2.70;;
3081;SDS011;1551;51.046;7.010;2022-11-04T15:57:18;4.63;;;2.67;;
3081;SDS011;1551;51.046;7.010;2022-11-04T16:03:03;7.93;;;3.05;;
3081;SDS011;1551;51.046;7.010;2022-11-04T16:05:59;5.00;;;2.60;;
3081;SDS011;1551;51.046;7.010;2022-11-04T16:15:02;5.18;;;2.88;;
3081;SDS011;1551;51.046;7.010;2022-11-04T16:17:52;4.30;;;2.75;;
3081;SDS011;1551;51.046;7.010;2022-11-04T16:20:43;5.72;;;3.30;;
3081;SDS011;1551;51.046;7.010;2022-11-04T16:23:35;5.20;;;2.75;;
3081;SDS011;1551;51.046;7.010;2022-11-04T16:26:39;8.10;;;2.95;;
3081;SDS011;1551;51.046;7.010;2022-11-04T16:29:32;4.13;;;2.92;;
3081;SDS011;1551;51.046;7.010;2022-11-04T16:32:28;7.80;;;3.37;;
3081;SDS011;1551;51.046;7.010;2022-11-04T16:35:21;6.40;;;2.88;;
3081;SDS011;1551;51.046;7.010;2022-11-04T16:38:14;7.70;;;3.10;;
3081;SDS011;1551;51.046;7.010;2022-11-04T16:41:03;4.50;;;3.17;;
3081;SDS011;1551;51.046;7.010;2022-11-04T16:43:52;6.22;;;3.50;;
3081;SDS011;1551;51.046;7.010;2022-11-04T16:46:41;8.07;;;3.22;;
3081;SDS011;1551;51.046;7.010;2022-11-04T16:49:30;5.80;;;3.25;;
3081;SDS011;1551;51.046;7.010;2022-11-04T16:52:21;6.00;;;3.20;;
3081;SDS011;1551;51.046;7.010;2022-11-04T16:55:13;5.25;;;3.55;;
3081;SDS011;1551;51.046;7.010;2022-11-04T16:58:03;8.38;;;3.70;;
3081;SDS011;1551;51.046;7.010;2022-11-04T17:00:52;7.75;;;4.15;;
3081;SDS011;1551;51.046;7.010;2022-11-04T17:03:41;6.43;;;3.53;;
3081;SDS011;1551;51.046;7.010;2022-11-04T17:06:31;7.20;;;3.47;;
3081;SDS011;1551;51.046;7.010;2022-11-04T17:09:20;5.40;;;3.30;;
3081;SDS011;1551;51.046;7.010;2022-11-04T17:12:11;6.28;;;3.55;;
3081;SDS011;1551;51.046;7.010;2022-11-04T17:15:00;6.50;;;3.28;;
3081;SDS011;1551;51.046;7.010;2022-11-04T17:17:48;6.28;;;5.07;;
3081;SDS011;1551;51.046;7.010;2022-11-04T17:20:38;11.85;;;7.05;;
3081;SDS011;1551;51.046;7.010;2022-11-04T17:23:32;7.50;;;4.93;;
3081;SDS011;1551;51.046;7.010;2022-11-04T17:26:21;5.40;;;3.60;;
3081;SDS011;1551;51.046;7.010;2022-11-04T17:29:09;7.45;;;3.75;;
3081;SDS011;1551;51.046;7.010;2022-11-04T17:31:58;6.18;;;3.65;;
3081;SDS011;1551;51.046;7.010;2022-11-04T17:34:47;4.90;;;3.30;;
3081;SDS011;1551;51.046;7.010;2022-11-04T17:37:36;6.07;;;3.83;;
3081;SDS011;1551;51.046;7.010;2022-11-04T17:40:26;8.20;;;4.38;;
3081;SDS011;1551;51.046;7.010;2022-11-04T17:43:15;6.40;;;3.90;;
3081;SDS011;1551;51.046;7.010;2022-11-04T17:46:22;9.20;;;4.20;;
3081;SDS011;1551;51.046;7.010;2022-11-04T17:49:29;4.50;;;3.60;;
3081;SDS011;1551;51.046;7.010;2022-11-04T17:52:18;9.75;;;3.95;;
3081;SDS011;1551;51.046;7.010;2022-11-04T17:55:08;4.85;;;3.63;;
3081;SDS011;1551;51.046;7.010;2022-11-04T17:57:57;6.68;;;3.60;;
3081;SDS011;1551;51.046;7.010;2022-11-04T18:00:46;8.00;;;4.70;;
3081;SDS011;1551;51.046;7.010;2022-11-04T18:03:35;6.30;;;4.53;;
3081;SDS011;1551;51.046;7.010;2022-11-04T18:06:24;11.10;;;4.60;;
3081;SDS011;1551;51.046;7.010;2022-11-04T18:09:14;8.70;;;4.87;;
3081;SDS011;1551;51.046;7.010;2022-11-04T18:12:05;7.80;;;3.65;;
3081;SDS011;1551;51.046;7.010;2022-11-04T18:15:13;5.55;;;3.70;;
3081;SDS011;1551;51.046;7.010;2022-11-04T18:18:04;8.88;;;4.20;;
3081;SDS011;1551;51.046;7.010;2022-11-04T18:21:00;10.40;;;7.03;;
3081;SDS011;1551;51.046;7.010;2022-11-04T18:23:50;22.45;;;16.75;;
3081;SDS011;1551;51.046;7.010;2022-11-04T18:26:39;9.77;;;5.47;;
3081;SDS011;1551;51.046;7.010;2022-11-04T18:29:28;6.63;;;3.85;;
3081;SDS011;1551;51.046;7.010;2022-11-04T18:32:17;7.13;;;4.00;;
3081;SDS011;1551;51.046;7.010;2022-11-04T18:35:06;8.02;;;4.60;;
3081;SDS011;1551;51.046;7.010;2022-11-04T18:37:55;7.30;;;4.35;;
3081;SDS011;1551;51.046;7.010;2022-11-04T18:40:44;8.55;;;4.55;;
3081;SDS011;1551;51.046;7.010;2022-11-04T18:43:34;9.32;;;6.68;;
3081;SDS011;1551;51.046;7.010;2022-11-04T18:46:23;11.65;;;7.65;;
3081;SDS011;1551;51.046;7.010;2022-11-04T18:49:12;9.18;;;7.22;;
3081;SDS011;1551;51.046;7.010;2022-11-04T18:52:03;8.60;;;6.32;;
3081;SDS011;1551;51.046;7.010;2022-11-04T18:54:52;7.53;;;5.70;;
3081;SDS011;1551;51.046;7.010;2022-11-04T18:57:41;10.40;;;5.95;;
3081;SDS011;1551;51.046;7.010;2022-11-04T19:00:30;7.75;;;5.60;;
3081;SDS011;1551;51.046;7.010;2022-11-04T19:03:19;9.63;;;5.50;;
3081;SDS011;1551;51.046;7.010;2022-11-04T19:06:09;9.10;;;6.07;;
3081;SDS011;1551;51.046;7.010;2022-11-04T19:09:05;8.98;;;5.80;;
3081;SDS011;1551;51.046;7.010;2022-11-04T19:11:56;8.63;;;6.20;;
3081;SDS011;1551;51.046;7.010;2022-11-04T19:15:04;7.07;;;5.20;;
3081;SDS011;1551;51.046;7.010;2022-11-04T19:17:53;8.20;;;5.78;;
3081;SDS011;1551;51.046;7.010;2022-11-04T19:20:42;7.75;;;5.40;;
3081;SDS011;1551;51.046;7.010;2022-11-04T19:23:34;8.27;;;6.38;;
3081;SDS011;1551;51.046;7.010;2022-11-04T19:26:25;11.50;;;6.40;;
3081;SDS011;1551;51.046;7.010;2022-11-04T19:29:16;7.43;;;6.25;;
3081;SDS011;1551;51.046;7.010;2022-11-04T19:32:05;12.40;;;6.78;;
3081;SDS011;1551;51.046;7.010;2022-11-04T19:34:54;7.60;;;6.38;;
3081;SDS011;1551;51.046;7.010;2022-11-04T19:37:43;9.32;;;5.80;;
3081;SDS011;1551;51.046;7.010;2022-11-04T19:40:32;7.47;;;5.70;;
3081;SDS011;1551;51.046;7.010;2022-11-04T19:43:22;11.35;;;6.85;;
3081;SDS011;1551;51.046;7.010;2022-11-04T19:46:11;16.58;;;10.35;;
3081;SDS011;1551;51.046;7.010;2022-11-04T19:49:00;25.92;;;14.18;;